Terminal Aerodrome Forecast
Issued by NWS Green Bay, WI

Home | Current Version | Previous Version | Text Only | Print | Product List | Glossary On
Versions: 1 2 3 4 5 6 7 8 9 10 11 12
000
FTUS43 KGRB 261145
TAFGRB
TAF
KGRB 261145Z 2612/2712 18003KT P6SM SCT120 BKN200
      TEMPO 2612/2614 4SM BR BKN120
     FM261400 23008KT P6SM VCSH SCT040 BKN090
      TEMPO 2617/2621 6SM -SHRA BR BKN040
     FM270000 27009KT P6SM BKN035
     FM270300 30010G16KT P6SM BKN035
     FM271000 30009KT P6SM SCT025=

USA.gov is the U.S. government's official web portal to all federal, state and local government web resources and services.